KMOT/MOT METAR and TAF weather

Enter ICAO airport designator
Station Type Date Time Source
KMOT METAR 2022/06/29 00:54 UTC NOAA

KMOT 290054Z 08011KT 10SM CLR 21/13 A3007 RMK AO2 SLP180 T02110128


Station Type Date Time Source
KMOT Decoded METAR 2022/06/29 00:54 UTC NOAA

MINOT INTERNATIONAL AIRPORT , ND, United States (KMOT) 48-16N 101-17W 519M
Jun 28, 2022 - 08:54 PM EDT / 2022.06.29 0054 UTC
Wind: from the E (080 degrees) at 13 MPH (11 KT):0
Visibility: 10 mile(s):0
Sky conditions: clear
Temperature: 70.0 F (21.1 C)
Dew Point: 55.0 F (12.8 C)
Relative Humidity: 59%
Pressure (altimeter): 30.07 in. Hg (1018 hPa)
ob: KMOT 290054Z 08011KT 10SM CLR 21/13 A3007 RMK AO2 SLP180 T02110128
cycle: 1

Station Type Date Time Source
KMOT TAF 2022/06/28 18:28 UTC NOAA

TAF KMOT 281726Z 2818/2918 VRB05KT P6SM FEW060 SCT120
FM282200 09010KT P6SM FEW060 SCT200
FM290600 12010G19KT P6SM VCSH FEW080 SCT250
FM291200 13012G23KT P6SM SCT090 BKN180

Example: see airport list